Time;durP1;ratioP1;P1;durP2;ratioP2;P2;SDS_P1;SDS_P2;PMS_P1;PMS_P2;Temp;Humidity;BMP_temperature;BMP_pressure;BME280_temperature;BME280_humidity;BME280_pressure;Samples;Min_cycle;Max_cycle;Signal;HPM_P1;HPM_P2
2023/09/04 00:02:08;;;;;;;37.00;31.08;;;17.60;99.90;;;;;;5034566;28;20045;-52
2023/09/04 00:04:35;;;;;;;39.30;32.58;;;17.60;99.90;;;;;;5034616;28;20069;-51
2023/09/04 00:07:02;;;;;;;40.08;32.92;;;17.50;99.90;;;;;;5034633;28;20050;-52
2023/09/04 00:09:29;;;;;;;40.05;32.15;;;17.50;99.90;;;;;;5034593;28;20477;-55
2023/09/04 00:11:56;;;;;;;44.25;34.42;;;17.50;99.90;;;;;;5035042;28;20418;-54
2023/09/04 00:14:23;;;;;;;40.00;33.20;;;17.50;99.90;;;;;;5033076;28;20051;-48
2023/09/04 00:16:50;;;;;;;41.55;32.88;;;17.50;99.90;;;;;;5034292;28;20038;-55
2023/09/04 00:19:17;;;;;;;40.63;32.40;;;17.50;99.90;;;;;;5034448;28;20408;-54
2023/09/04 00:21:44;;;;;;;40.55;32.08;;;17.50;99.90;;;;;;5034428;28;20049;-54
2023/09/04 00:24:11;;;;;;;37.67;32.05;;;17.50;99.90;;;;;;5034553;28;20077;-53
2023/09/04 00:26:40;;;;;;;44.00;33.83;;;17.40;99.90;;;;;;5034367;28;20033;-50
2023/09/04 00:29:07;;;;;;;37.50;30.92;;;17.40;99.90;;;;;;5034520;28;20477;-50
2023/09/04 00:31:34;;;;;;;39.65;32.65;;;17.40;99.90;;;;;;5034017;28;20388;-55
2023/09/04 00:34:02;;;;;;;40.15;32.15;;;17.40;99.90;;;;;;5034009;28;20034;-51
2023/09/04 00:36:29;;;;;;;38.45;31.92;;;17.40;99.90;;;;;;5034217;28;20061;-53
2023/09/04 00:38:55;;;;;;;40.65;33.97;;;17.30;99.90;;;;;;5034245;28;20117;-50
2023/09/04 00:41:22;;;;;;;45.58;34.72;;;17.30;99.90;;;;;;5034177;28;20041;-53
2023/09/04 00:43:49;;;;;;;44.53;33.95;;;17.30;99.90;;;;;;5033805;28;20140;-55
2023/09/04 00:46:19;;;;;;;48.58;34.80;;;17.30;99.90;;;;;;5032466;28;20141;-50
2023/09/04 00:48:46;;;;;;;46.28;34.38;;;17.30;99.90;;;;;;5033823;28;20044;-51
2023/09/04 00:51:12;;;;;;;40.97;33.67;;;17.20;99.90;;;;;;5032768;28;20048;-50
2023/09/04 00:53:39;;;;;;;41.20;33.35;;;17.20;99.90;;;;;;5033723;28;20034;-51
2023/09/04 00:56:06;;;;;;;43.80;33.15;;;17.20;99.90;;;;;;5032596;28;20046;-50
2023/09/04 00:58:33;;;;;;;42.95;35.22;;;17.20;99.90;;;;;;5032558;28;20049;-51
2023/09/04 01:00:59;;;;;;;42.13;34.15;;;17.20;99.90;;;;;;5034128;28;20045;-49
2023/09/04 01:03:27;;;;;;;43.03;35.25;;;17.10;99.90;;;;;;5033898;28;20045;-53
2023/09/04 01:05:54;;;;;;;42.78;35.10;;;17.20;99.90;;;;;;5034111;28;20061;-53
2023/09/04 01:08:21;;;;;;;41.05;34.38;;;17.20;99.90;;;;;;5033975;28;20041;-48
2023/09/04 01:10:48;;;;;;;46.40;36.45;;;17.10;99.90;;;;;;5033527;28;20038;-53
2023/09/04 01:13:15;;;;;;;44.55;36.80;;;17.10;99.90;;;;;;5033996;28;20044;-53
2023/09/04 01:15:42;;;;;;;51.00;38.10;;;17.10;99.90;;;;;;5032789;28;20056;-55
2023/09/04 01:18:09;;;;;;;48.65;37.75;;;17.10;99.90;;;;;;5033568;28;20116;-55
2023/09/04 01:20:36;;;;;;;50.80;38.75;;;17.10;99.90;;;;;;5032490;28;20072;-54
2023/09/04 01:23:03;;;;;;;54.97;40.30;;;17.10;99.90;;;;;;5033803;28;20041;-53
2023/09/04 01:25:31;;;;;;;56.75;42.17;;;17.10;99.90;;;;;;5032288;28;20447;-49
2023/09/04 01:27:58;;;;;;;56.47;42.35;;;17.10;99.90;;;;;;5032440;28;20049;-51
2023/09/04 01:30:25;;;;;;;62.60;45.35;;;17.10;99.90;;;;;;5033441;28;20060;-55
2023/09/04 01:32:52;;;;;;;59.63;44.83;;;17.10;99.90;;;;;;5033369;28;20033;-51
2023/09/04 01:35:19;;;;;;;71.07;47.50;;;17.20;99.90;;;;;;5032166;28;20049;-50
2023/09/04 01:37:45;;;;;;;68.82;48.22;;;17.30;99.90;;;;;;5033419;28;20382;-54
2023/09/04 01:40:12;;;;;;;75.35;48.65;;;17.30;99.90;;;;;;5033162;28;20043;-54
2023/09/04 01:42:39;;;;;;;76.18;50.28;;;17.40;99.90;;;;;;5033548;28;20446;-55
2023/09/04 01:45:06;;;;;;;80.28;50.88;;;17.40;99.90;;;;;;5033302;28;20129;-52
2023/09/04 01:47:33;;;;;;;83.30;51.53;;;17.50;99.90;;;;;;5033034;28;20128;-51
2023/09/04 01:49:59;;;;;;;88.63;50.75;;;17.50;99.90;;;;;;5033137;28;20041;-52
2023/09/04 01:52:26;;;;;;;95.35;53.13;;;17.50;99.90;;;;;;5032748;28;20041;-48
2023/09/04 01:54:53;;;;;;;94.43;51.90;;;17.50;99.90;;;;;;5032902;28;20053;-49
2023/09/04 01:57:20;;;;;;;98.43;53.28;;;17.60;99.90;;;;;;5031881;28;20048;-47
2023/09/04 01:59:47;;;;;;;93.90;52.92;;;17.60;99.90;;;;;;5031942;28;20045;-49
2023/09/04 02:02:13;;;;;;;96.47;52.25;;;17.60;99.90;;;;;;5031711;28;20041;-50
2023/09/04 02:04:40;;;;;;;98.05;51.75;;;17.60;99.90;;;;;;5031470;28;20056;-55
2023/09/04 02:07:07;;;;;;;96.50;52.60;;;17.60;99.90;;;;;;5034837;28;20056;-51
2023/09/04 02:09:34;;;;;;;94.57;52.97;;;17.60;99.90;;;;;;5035374;28;20052;-49
2023/09/04 02:12:01;;;;;;;89.70;52.58;;;17.60;99.90;;;;;;5035407;28;20124;-53
2023/09/04 02:14:28;;;;;;;90.10;52.03;;;17.70;99.90;;;;;;5036982;28;20049;-52
2023/09/04 02:16:54;;;;;;;100.75;54.22;;;17.70;99.90;;;;;;5036342;28;20045;-51
2023/09/04 02:19:21;;;;;;;105.53;56.10;;;17.70;99.90;;;;;;5036740;28;20052;-53
2023/09/04 02:21:48;;;;;;;97.50;54.65;;;17.80;99.90;;;;;;5035144;28;20506;-50
2023/09/04 02:24:15;;;;;;;93.80;53.80;;;17.80;99.90;;;;;;5035681;28;20051;-50
2023/09/04 02:26:41;;;;;;;92.80;54.10;;;17.80;99.90;;;;;;5035297;28;20480;-53
2023/09/04 02:29:08;;;;;;;94.07;55.28;;;17.80;99.90;;;;;;5036571;28;20049;-53
2023/09/04 02:31:35;;;;;;;88.85;52.55;;;17.80;99.90;;;;;;5035606;28;20055;-52
2023/09/04 02:34:02;;;;;;;94.68;53.30;;;17.80;99.90;;;;;;5035179;28;20435;-51
2023/09/04 02:36:29;;;;;;;90.55;53.75;;;17.80;99.90;;;;;;5036492;28;20038;-48
2023/09/04 02:38:55;;;;;;;91.32;52.72;;;17.80;99.90;;;;;;5036312;28;20125;-48
2023/09/04 02:41:22;;;;;;;91.25;53.08;;;17.80;99.90;;;;;;5036242;28;20107;-52
2023/09/04 02:43:49;;;;;;;92.95;53.53;;;17.80;99.90;;;;;;5034683;28;20054;-49
2023/09/04 02:46:16;;;;;;;103.80;53.58;;;17.80;99.90;;;;;;5035332;28;20056;-56
2023/09/04 02:48:45;;;;;;;90.65;54.35;;;17.80;99.90;;;;;;5034683;28;20469;-46
2023/09/04 02:51:12;;;;;;;98.63;55.15;;;17.80;99.90;;;;;;5034818;28;20050;-50
2023/09/04 02:53:39;;;;;;;96.93;54.13;;;17.80;99.90;;;;;;5034748;28;20037;-50
2023/09/04 02:56:05;;;;;;;99.38;54.47;;;17.80;99.90;;;;;;5036512;28;20048;-52
2023/09/04 02:58:34;;;;;;;98.13;55.40;;;17.80;99.90;;;;;;5034662;28;20502;-48
2023/09/04 03:01:01;;;;;;;101.63;54.88;;;17.90;99.90;;;;;;5034730;28;20056;-47
2023/09/04 03:03:28;;;;;;;101.13;56.22;;;17.90;99.90;;;;;;5034846;28;20065;-49
2023/09/04 03:05:55;;;;;;;96.78;54.05;;;17.90;99.90;;;;;;5034751;28;20132;-46
2023/09/04 03:08:22;;;;;;;97.20;53.40;;;17.90;99.90;;;;;;5035690;28;20042;-46
2023/09/04 03:10:49;;;;;;;97.32;54.08;;;17.90;99.90;;;;;;5034332;28;20500;-50
2023/09/04 03:13:16;;;;;;;95.03;54.22;;;17.90;99.90;;;;;;5034172;28;20515;-48
2023/09/04 03:15:43;;;;;;;100.38;55.88;;;17.90;99.90;;;;;;5034333;28;20510;-51
2023/09/04 03:18:10;;;;;;;96.63;54.70;;;17.90;99.90;;;;;;5034053;28;20476;-50
2023/09/04 03:20:38;;;;;;;94.00;54.03;;;18.00;99.90;;;;;;5034126;28;20378;-51
2023/09/04 03:23:04;;;;;;;91.72;52.80;;;18.00;99.90;;;;;;5034221;28;20049;-54
2023/09/04 03:25:32;;;;;;;89.13;52.83;;;18.00;99.90;;;;;;5034489;28;20140;-57
2023/09/04 03:27:59;;;;;;;99.00;53.95;;;18.00;99.90;;;;;;5034027;28;20049;-55
2023/09/04 03:30:26;;;;;;;93.78;53.10;;;18.00;99.90;;;;;;5035443;28;20068;-54
2023/09/04 03:32:53;;;;;;;95.00;53.10;;;18.00;99.90;;;;;;5033608;28;20065;-53
2023/09/04 03:35:22;;;;;;;96.80;54.15;;;18.10;99.90;;;;;;5034185;28;20041;-53
2023/09/04 03:37:49;;;;;;;100.32;55.42;;;18.00;99.90;;;;;;5033940;28;20095;-51
2023/09/04 03:40:15;;;;;;;97.32;53.45;;;18.10;99.90;;;;;;5035345;28;20045;-48
2023/09/04 03:42:42;;;;;;;99.40;55.53;;;18.10;99.90;;;;;;5017671;28;20056;-53
2023/09/04 03:45:12;;;;;;;96.32;52.45;;;18.10;99.90;;;;;;5035241;28;20073;-49
2023/09/04 03:47:39;;;;;;;94.05;52.72;;;18.10;99.90;;;;;;5035196;28;20058;-53
2023/09/04 03:50:06;;;;;;;101.03;53.60;;;18.10;99.90;;;;;;5035077;28;20060;-53
2023/09/04 03:52:33;;;;;;;94.68;52.20;;;18.10;99.90;;;;;;5035063;28;20129;-51
2023/09/04 03:55:00;;;;;;;100.68;53.60;;;18.10;99.90;;;;;;5033806;28;20144;-49
2023/09/04 03:57:27;;;;;;;102.95;54.65;;;18.10;99.90;;;;;;5033230;28;20046;-52
2023/09/04 03:59:54;;;;;;;108.55;55.95;;;18.10;99.90;;;;;;5035218;28;20124;-54
2023/09/04 04:02:20;;;;;;;108.40;55.92;;;18.10;99.90;;;;;;5033421;28;20056;-49
2023/09/04 04:04:47;;;;;;;114.47;57.85;;;18.10;99.90;;;;;;5035128;28;20375;-56
2023/09/04 04:07:14;;;;;;;103.65;56.08;;;18.10;99.90;;;;;;5034695;28;20473;-52
2023/09/04 04:09:41;;;;;;;102.28;56.35;;;18.10;99.90;;;;;;5034813;28;20064;-52
2023/09/04 04:12:08;;;;;;;103.57;55.65;;;18.10;99.90;;;;;;5034763;28;20049;-51
2023/09/04 04:14:35;;;;;;;105.53;55.38;;;18.10;99.90;;;;;;5033438;28;20053;-52
2023/09/04 04:17:01;;;;;;;100.63;55.67;;;18.10;99.90;;;;;;5033490;28;20099;-49
2023/09/04 04:19:28;;;;;;;101.55;55.20;;;18.00;99.90;;;;;;5034872;28;20033;-51
2023/09/04 04:21:55;;;;;;;107.55;56.88;;;18.00;99.90;;;;;;5033410;28;20049;-47
2023/09/04 04:24:22;;;;;;;103.65;55.97;;;18.00;99.90;;;;;;5033427;28;20045;-55
2023/09/04 04:26:49;;;;;;;99.13;53.35;;;18.00;99.90;;;;;;5032995;28;20374;-48
2023/09/04 04:29:16;;;;;;;94.63;53.67;;;18.00;99.90;;;;;;5033523;28;20147;-53
2023/09/04 04:31:43;;;;;;;89.20;51.35;;;18.00;99.90;;;;;;5033219;28;20049;-50
2023/09/04 04:34:11;;;;;;;94.28;52.85;;;18.00;99.90;;;;;;5033028;28;20460;-52
2023/09/04 04:36:38;;;;;;;88.57;47.75;;;18.10;99.90;;;;;;5016357;28;20041;-51
2023/09/04 04:39:05;;;;;;;92.18;47.97;;;18.10;99.90;;;;;;5032559;28;20477;-48
2023/09/04 04:41:32;;;;;;;81.05;46.42;;;18.10;99.90;;;;;;5034052;28;20038;-55
2023/09/04 04:44:00;;;;;;;97.45;47.05;;;18.10;99.90;;;;;;5032817;28;20393;-50
2023/09/04 04:46:28;;;;;;;81.18;45.38;;;18.10;99.90;;;;;;5032663;28;20056;-52
2023/09/04 04:48:55;;;;;;;80.72;45.22;;;18.10;99.90;;;;;;5032774;28;20081;-47
2023/09/04 04:51:21;;;;;;;81.53;46.35;;;18.10;99.90;;;;;;5034031;28;20496;-46
2023/09/04 04:53:48;;;;;;;82.47;45.90;;;18.10;99.90;;;;;;5032010;28;20049;-52
2023/09/04 04:56:16;;;;;;;83.57;46.40;;;18.10;99.90;;;;;;5033400;28;20041;-51
2023/09/04 04:58:43;;;;;;;83.03;47.83;;;18.10;99.90;;;;;;5034148;28;20100;-52
2023/09/04 05:01:10;;;;;;;88.53;48.53;;;18.10;99.90;;;;;;5033865;28;20473;-52
2023/09/04 05:03:38;;;;;;;82.90;46.78;;;18.10;99.90;;;;;;5033484;28;20045;-50
2023/09/04 05:06:05;;;;;;;86.72;46.75;;;18.10;99.90;;;;;;5032299;28;20069;-53
2023/09/04 05:08:32;;;;;;;86.40;47.35;;;18.10;99.90;;;;;;5033895;28;20047;-53
2023/09/04 05:10:58;;;;;;;84.78;46.58;;;18.10;99.90;;;;;;5033734;28;20041;-49
2023/09/04 05:13:25;;;;;;;84.65;47.42;;;18.10;99.90;;;;;;5032159;28;20560;-47
2023/09/04 05:15:52;;;;;;;87.90;48.15;;;18.10;99.90;;;;;;5033391;28;20044;-49
2023/09/04 05:18:19;;;;;;;88.85;48.22;;;18.10;99.90;;;;;;5032076;28;20046;-52
2023/09/04 05:20:46;;;;;;;88.68;48.13;;;18.10;99.90;;;;;;5032554;28;20068;-50
2023/09/04 05:23:14;;;;;;;90.40;48.42;;;18.20;99.90;;;;;;5033196;28;20046;-50
2023/09/04 05:25:41;;;;;;;89.40;48.03;;;18.10;99.90;;;;;;5033692;28;20044;-50
2023/09/04 05:28:07;;;;;;;89.13;48.17;;;18.10;99.90;;;;;;5033435;28;20077;-50
2023/09/04 05:30:34;;;;;;;91.70;48.97;;;18.10;99.90;;;;;;5033593;28;20150;-55
2023/09/04 05:33:01;;;;;;;91.35;48.28;;;18.10;99.90;;;;;;5033330;28;20044;-48
2023/09/04 05:35:28;;;;;;;87.00;48.00;;;18.10;99.90;;;;;;5033401;28;20048;-48
2023/09/04 05:37:55;;;;;;;93.25;48.35;;;18.10;99.90;;;;;;5033382;28;20064;-48
2023/09/04 05:40:22;;;;;;;92.18;48.03;;;18.10;99.90;;;;;;5033499;28;20039;-47
2023/09/04 05:42:49;;;;;;;93.95;48.92;;;18.10;99.90;;;;;;5033590;28;20046;-49
2023/09/04 05:45:16;;;;;;;89.68;46.08;;;18.10;99.90;;;;;;5033237;28;20050;-51
2023/09/04 05:47:43;;;;;;;88.60;46.97;;;18.10;99.90;;;;;;5031719;28;20037;-50
2023/09/04 05:50:10;;;;;;;85.80;44.78;;;18.10;99.90;;;;;;5033689;28;20045;-51
2023/09/04 05:52:36;;;;;;;79.40;43.70;;;18.10;99.90;;;;;;5033331;28;20048;-49
2023/09/04 05:55:03;;;;;;;82.13;44.33;;;18.10;99.90;;;;;;5033090;28;20047;-47
2023/09/04 05:57:30;;;;;;;80.00;42.95;;;18.10;99.90;;;;;;5031618;28;20045;-50
2023/09/04 05:59:57;;;;;;;73.82;40.28;;;18.10;99.90;;;;;;5032897;28;20044;-54
2023/09/04 06:02:23;;;;;;;66.22;39.08;;;18.10;99.90;;;;;;5032824;28;20144;-54
2023/09/04 06:04:50;;;;;;;70.03;40.08;;;18.10;99.90;;;;;;5031966;28;20334;-51
2023/09/04 06:07:17;;;;;;;63.95;37.95;;;18.10;99.90;;;;;;5032407;28;20045;-53
2023/09/04 06:09:44;;;;;;;66.60;39.30;;;18.10;99.90;;;;;;5032496;28;20480;-49
2023/09/04 06:12:12;;;;;;;67.20;40.47;;;18.10;99.90;;;;;;5032387;28;20045;-55
2023/09/04 06:14:39;;;;;;;65.95;38.17;;;18.10;99.90;;;;;;5032462;28;20055;-50
2023/09/04 06:17:06;;;;;;;69.28;39.55;;;18.10;99.90;;;;;;5032699;28;20112;-50
2023/09/04 06:19:32;;;;;;;67.50;39.78;;;18.10;99.90;;;;;;5032555;28;20048;-53
2023/09/04 06:21:59;;;;;;;62.80;38.63;;;18.20;99.90;;;;;;5033012;28;20045;-50
2023/09/04 06:24:26;;;;;;;63.97;38.08;;;18.20;99.90;;;;;;5029349;28;20045;-51
2023/09/04 06:26:53;;;;;;;60.92;39.28;;;18.30;99.90;;;;;;5033180;28;20064;-54
2023/09/04 06:29:19;;;;;;;61.25;39.30;;;18.30;99.90;;;;;;5035608;28;20124;-53
2023/09/04 06:31:46;;;;;;;62.05;39.25;;;18.30;99.90;;;;;;5035303;28;20037;-55
2023/09/04 06:34:13;;;;;;;61.17;38.20;;;18.40;99.90;;;;;;5033073;28;20115;-46
2023/09/04 06:36:40;;;;;;;64.22;39.92;;;18.40;99.90;;;;;;5034256;28;20037;-54
2023/09/04 06:39:06;;;;;;;63.42;38.85;;;18.40;99.90;;;;;;5034618;28;20044;-54
2023/09/04 06:41:33;;;;;;;58.42;37.42;;;18.50;99.90;;;;;;5034202;28;20038;-50
2023/09/04 06:44:02;;;;;;;64.53;39.97;;;18.50;99.90;;;;;;5032635;28;20484;-49
2023/09/04 06:46:29;;;;;;;57.67;37.78;;;18.50;99.90;;;;;;5029433;28;20077;-52
2023/09/04 06:48:56;;;;;;;57.47;38.50;;;18.60;99.90;;;;;;5033111;28;20527;-51
2023/09/04 06:51:23;;;;;;;64.22;40.78;;;18.60;99.90;;;;;;5033260;28;20326;-50
2023/09/04 06:53:50;;;;;;;58.30;39.15;;;18.60;99.90;;;;;;5035946;28;20052;-51
2023/09/04 06:56:17;;;;;;;57.70;37.80;;;18.70;99.90;;;;;;5036286;28;20044;-51
2023/09/04 06:58:43;;;;;;;58.75;37.90;;;18.60;99.90;;;;;;5036190;28;20042;-49
2023/09/04 07:01:10;;;;;;;57.80;37.17;;;18.60;99.90;;;;;;5036741;28;20030;-53
2023/09/04 07:03:37;;;;;;;54.30;36.28;;;18.70;99.90;;;;;;5036242;28;20049;-48
2023/09/04 07:06:04;;;;;;;54.75;36.92;;;18.70;99.90;;;;;;5035885;28;20080;-58
2023/09/04 07:08:31;;;;;;;55.47;36.33;;;18.60;99.90;;;;;;5036012;28;20052;-52
2023/09/04 07:10:58;;;;;;;51.88;35.75;;;18.60;99.90;;;;;;5036091;28;20477;-51
2023/09/04 07:13:25;;;;;;;55.10;35.58;;;18.60;99.90;;;;;;5035907;28;20134;-49
2023/09/04 07:15:52;;;;;;;50.90;33.90;;;18.50;99.90;;;;;;5035585;28;20140;-51
2023/09/04 07:18:19;;;;;;;47.45;34.17;;;18.50;99.90;;;;;;5035775;28;20053;-48
2023/09/04 07:20:46;;;;;;;51.38;34.55;;;18.60;99.90;;;;;;5035676;28;20125;-48
2023/09/04 07:23:12;;;;;;;47.10;32.13;;;18.60;99.90;;;;;;5035903;28;20049;-47
2023/09/04 07:25:48;;;;;;;48.30;33.40;;;18.60;99.90;;;;;;5035479;28;20389;-51
2023/09/04 07:28:14;;;;;;;48.85;33.03;;;18.60;99.90;;;;;;5035571;28;20037;-55
2023/09/04 07:30:41;;;;;;;49.17;33.40;;;18.60;99.90;;;;;;5035062;28;20064;-52
2023/09/04 07:33:08;;;;;;;45.95;32.45;;;18.60;99.90;;;;;;5035600;28;20048;-52
2023/09/04 07:35:35;;;;;;;45.70;31.65;;;18.70;99.90;;;;;;5035303;28;20045;-53
2023/09/04 07:38:02;;;;;;;42.53;32.05;;;18.70;99.90;;;;;;5035109;28;20042;-50
2023/09/04 07:40:28;;;;;;;42.78;29.90;;;18.70;99.90;;;;;;5035057;28;20117;-47
2023/09/04 07:42:55;;;;;;;43.97;29.70;;;18.80;99.90;;;;;;5035252;28;20168;-50
2023/09/04 07:45:24;;;;;;;40.35;29.83;;;18.80;99.90;;;;;;5035269;28;20065;-48
2023/09/04 07:47:51;;;;;;;44.10;30.90;;;18.90;99.90;;;;;;5034894;28;20432;-53
2023/09/04 07:50:18;;;;;;;46.30;31.25;;;18.90;99.90;;;;;;5035168;28;20516;-49
2023/09/04 07:52:45;;;;;;;40.47;29.60;;;18.90;99.90;;;;;;5035045;28;20037;-50
2023/09/04 07:55:12;;;;;;;37.80;28.20;;;19.00;99.90;;;;;;5034693;28;20054;-48
2023/09/04 07:57:39;;;;;;;35.58;27.83;;;19.10;99.90;;;;;;5034488;28;20041;-48
2023/09/04 08:00:06;;;;;;;37.85;28.50;;;19.10;99.90;;;;;;5033797;28;20042;-53
2023/09/04 08:02:38;;;;;;;34.17;26.77;;;19.20;99.90;;;;;;5034542;28;20385;-47
2023/09/04 08:05:06;;;;;;;34.50;27.63;;;19.20;99.90;;;;;;5034772;28;20399;-51
2023/09/04 08:07:32;;;;;;;33.05;26.10;;;19.20;99.90;;;;;;5034975;28;20112;-54
2023/09/04 08:10:01;;;;;;;33.70;25.80;;;19.20;99.90;;;;;;5034881;28;20045;-50
2023/09/04 08:12:28;;;;;;;31.83;23.75;;;19.30;99.90;;;;;;5034561;28;20404;-53
2023/09/04 08:14:54;;;;;;;28.25;22.80;;;19.30;99.90;;;;;;5034791;28;20385;-51
2023/09/04 08:17:21;;;;;;;25.52;20.90;;;19.40;99.90;;;;;;5034804;28;20048;-52
2023/09/04 08:19:48;;;;;;;24.38;20.50;;;19.50;99.90;;;;;;5017483;28;20477;-49
2023/09/04 08:22:15;;;;;;;22.25;18.25;;;19.50;99.90;;;;;;5034442;28;20049;-51
2023/09/04 08:24:42;;;;;;;21.13;17.73;;;19.60;99.90;;;;;;5034646;28;20103;-54
2023/09/04 08:27:09;;;;;;;21.80;18.08;;;19.70;99.90;;;;;;5032879;28;20053;-47
2023/09/04 08:29:36;;;;;;;23.42;18.38;;;19.70;99.90;;;;;;5034611;28;20547;-49
2023/09/04 08:32:02;;;;;;;22.40;18.25;;;19.80;99.90;;;;;;5033610;28;20092;-52
2023/09/04 08:34:29;;;;;;;21.15;17.70;;;19.90;99.90;;;;;;5032812;28;20041;-49
2023/09/04 08:36:56;;;;;;;17.88;15.98;;;19.90;99.90;;;;;;5033572;28;20113;-53
2023/09/04 08:39:23;;;;;;;18.60;15.68;;;20.00;99.90;;;;;;5028607;28;20041;-53
2023/09/04 08:41:50;;;;;;;22.02;14.82;;;20.00;99.90;;;;;;5036024;28;20050;-47
2023/09/04 08:44:17;;;;;;;17.80;13.85;;;20.10;99.90;;;;;;5029777;28;20103;-55
2023/09/04 08:46:44;;;;;;;17.15;11.30;;;20.20;99.90;;;;;;5032582;28;20424;-47
2023/09/04 08:49:14;;;;;;;14.07;10.02;;;20.30;99.90;;;;;;5032443;28;20076;-50
2023/09/04 08:51:41;;;;;;;11.25;9.73;;;20.40;99.90;;;;;;5032185;28;20048;-52
2023/09/04 08:54:08;;;;;;;15.65;8.85;;;20.50;99.90;;;;;;5033081;28;20172;-51
2023/09/04 08:56:36;;;;;;;12.52;7.97;;;20.60;99.90;;;;;;5026960;28;20045;-56
2023/09/04 08:59:03;;;;;;;11.55;7.28;;;20.70;99.90;;;;;;5024417;28;20041;-52
2023/09/04 09:01:32;;;;;;;10.57;7.63;;;20.80;99.90;;;;;;5026527;28;20044;-51
2023/09/04 09:03:59;;;;;;;9.13;7.25;;;20.90;99.90;;;;;;5022865;28;20065;-53
2023/09/04 09:06:26;;;;;;;10.27;7.78;;;20.90;99.90;;;;;;5030926;28;20117;-54
2023/09/04 09:08:53;;;;;;;9.45;7.35;;;21.00;99.90;;;;;;5024917;28;20038;-50
2023/09/04 09:11:20;;;;;;;10.38;6.82;;;21.10;99.90;;;;;;5025828;28;20481;-50
2023/09/04 09:13:47;;;;;;;9.85;6.07;;;21.20;99.90;;;;;;5025315;28;20125;-50
2023/09/04 09:16:14;;;;;;;7.20;5.30;;;21.20;99.90;;;;;;5031436;28;20095;-52
2023/09/04 09:18:42;;;;;;;8.38;5.20;;;21.30;99.90;;;;;;5031947;28;20103;-52
2023/09/04 09:21:09;;;;;;;6.10;5.20;;;21.40;99.90;;;;;;5033256;28;20041;-52
2023/09/04 09:23:36;;;;;;;7.10;5.07;;;21.40;99.90;;;;;;5030292;28;20096;-50
2023/09/04 09:26:03;;;;;;;10.27;4.75;;;21.50;99.90;;;;;;5029299;28;20049;-52
2023/09/04 09:28:30;;;;;;;6.50;4.50;;;21.50;99.90;;;;;;5025891;28;20048;-51
2023/09/04 09:30:57;;;;;;;6.35;4.20;;;21.60;99.90;;;;;;5032611;28;20095;-51
2023/09/04 09:33:24;;;;;;;4.70;3.70;;;21.70;99.90;;;;;;5032208;28;20124;-57
2023/09/04 09:35:51;;;;;;;4.20;3.50;;;21.80;99.90;;;;;;5032802;28;20038;-52
2023/09/04 09:38:18;;;;;;;6.38;4.20;;;21.90;99.90;;;;;;5032571;28;20401;-52
2023/09/04 09:40:44;;;;;;;6.38;4.47;;;21.90;99.90;;;;;;5029766;28;20060;-53
2023/09/04 09:43:12;;;;;;;7.07;4.07;;;22.00;99.90;;;;;;5030128;28;20064;-54
2023/09/04 09:45:39;;;;;;;5.57;3.70;;;22.10;99.90;;;;;;5034644;28;20041;-55
2023/09/04 09:48:06;;;;;;;5.50;3.90;;;22.20;99.90;;;;;;5032028;28;20072;-52
2023/09/04 09:50:33;;;;;;;6.85;4.40;;;22.20;99.90;;;;;;5032557;28;20100;-53
2023/09/04 09:53:00;;;;;;;5.82;3.45;;;22.30;99.90;;;;;;5032225;28;20042;-46
2023/09/04 09:55:27;;;;;;;5.07;3.90;;;22.30;99.90;;;;;;5028760;28;20100;-53
2023/09/04 09:57:54;;;;;;;6.25;3.58;;;22.40;99.90;;;;;;5029129;28;20461;-51
2023/09/04 10:00:21;;;;;;;4.28;3.30;;;22.40;99.90;;;;;;5029580;28;20064;-48
2023/09/04 10:02:48;;;;;;;9.85;3.90;;;22.50;99.90;;;;;;5029506;28;20515;-53
2023/09/04 10:05:15;;;;;;;5.03;3.50;;;22.60;99.90;;;;;;5029958;28;20503;-53
2023/09/04 10:07:42;;;;;;;6.30;3.63;;;22.70;99.90;;;;;;5031333;28;20053;-54
2023/09/04 10:10:11;;;;;;;15.27;3.88;;;22.70;99.90;;;;;;5031260;28;20045;-54
2023/09/04 10:12:38;;;;;;;6.03;3.50;;;22.80;99.90;;;;;;5019358;28;20053;-57
2023/09/04 10:15:05;;;;;;;6.18;3.58;;;22.90;99.90;;;;;;5028026;28;20037;-52
2023/09/04 10:17:32;;;;;;;5.07;3.50;;;22.90;99.60;;;;;;5029572;28;20045;-56
2023/09/04 10:19:59;;;;;;;6.72;3.47;;;23.00;99.40;;;;;;5030795;28;20042;-53
2023/09/04 10:22:26;;;;;;;9.60;3.55;;;23.00;99.80;;;;;;5030660;28;20145;-48
2023/09/04 10:24:53;;;;;;;4.28;3.22;;;23.00;99.90;;;;;;5013949;28;20140;-53
2023/09/04 10:27:20;;;;;;;4.00;3.00;;;23.10;99.70;;;;;;5034217;28;20034;-52
2023/09/04 10:29:47;;;;;;;7.80;3.30;;;23.10;99.40;;;;;;5036085;28;20483;-50
2023/09/04 10:32:14;;;;;;;7.75;3.58;;;23.20;99.80;;;;;;5035917;28;20043;-55
2023/09/04 10:34:41;;;;;;;6.47;3.60;;;23.30;99.70;;;;;;5035799;28;20038;-53
2023/09/04 10:37:08;;;;;;;5.05;3.30;;;23.30;99.40;;;;;;5035630;28;20054;-51
2023/09/04 10:39:34;;;;;;;4.93;3.40;;;23.30;99.30;;;;;;5035731;28;20069;-49
2023/09/04 10:42:01;;;;;;;5.75;3.17;;;23.40;99.50;;;;;;5033590;28;20041;-53
2023/09/04 10:44:28;;;;;;;4.78;3.08;;;23.40;99.30;;;;;;5034649;28;20060;-53
2023/09/04 10:46:56;;;;;;;9.20;3.60;;;23.50;99.20;;;;;;5034437;28;20072;-55
2023/09/04 10:49:23;;;;;;;23.15;4.78;;;23.60;99.20;;;;;;5018320;28;20444;-55
2023/09/04 10:51:50;;;;;;;4.68;3.42;;;23.60;99.20;;;;;;5035734;28;20116;-52
2023/09/04 10:54:17;;;;;;;6.10;2.88;;;23.70;98.80;;;;;;5035294;28;20050;-54
2023/09/04 10:56:44;;;;;;;5.25;3.05;;;23.80;99.20;;;;;;5035336;28;20052;-54
2023/09/04 10:59:13;;;;;;;11.52;3.00;;;23.80;98.90;;;;;;5035743;28;20129;-53
2023/09/04 11:01:41;;;;;;;6.32;3.40;;;23.80;98.60;;;;;;5035032;28;20538;-58
2023/09/04 11:04:08;;;;;;;12.13;3.63;;;23.80;98.90;;;;;;5034771;28;20045;-55
2023/09/04 11:06:35;;;;;;;5.65;3.30;;;23.90;98.90;;;;;;5035746;28;20041;-53
2023/09/04 11:09:02;;;;;;;10.43;3.53;;;24.00;98.80;;;;;;5035651;28;20042;-55
2023/09/04 11:11:29;;;;;;;4.82;3.30;;;24.00;98.90;;;;;;5035485;28;20408;-49
2023/09/04 11:13:56;;;;;;;4.90;3.45;;;24.00;98.90;;;;;;5035362;28;20426;-55
2023/09/04 11:16:23;;;;;;;6.28;3.33;;;24.10;98.90;;;;;;5035346;28;20048;-56
2023/09/04 11:18:50;;;;;;;15.55;4.20;;;24.20;99.50;;;;;;5035704;28;20432;-53
2023/09/04 11:21:16;;;;;;;14.55;3.90;;;24.30;99.30;;;;;;5035272;28;20065;-53
2023/09/04 11:23:43;;;;;;;7.72;3.35;;;24.30;99.20;;;;;;5034507;28;20124;-56
2023/09/04 11:26:10;;;;;;;18.25;4.20;;;24.40;98.90;;;;;;5035390;28;20417;-52
2023/09/04 11:28:37;;;;;;;10.75;4.07;;;24.50;98.90;;;;;;5035362;28;20045;-47
2023/09/04 11:31:04;;;;;;;5.38;3.60;;;24.60;98.90;;;;;;5034154;28;20041;-50
2023/09/04 11:33:33;;;;;;;5.90;3.40;;;24.60;98.90;;;;;;5034996;28;20120;-52
2023/09/04 11:36:01;;;;;;;6.03;3.50;;;24.60;98.40;;;;;;5026760;28;20088;-48
2023/09/04 11:38:29;;;;;;;5.22;3.72;;;24.60;98.80;;;;;;5034779;28;20064;-49
2023/09/04 11:40:56;;;;;;;7.43;4.05;;;24.60;99.10;;;;;;5034901;28;20469;-50
2023/09/04 11:43:23;;;;;;;5.90;3.95;;;24.70;99.10;;;;;;5039785;28;20095;-54
2023/09/04 11:45:55;;;;;;;6.47;3.90;;;24.70;99.10;;;;;;5035116;28;20075;-53
2023/09/04 11:48:22;;;;;;;8.50;4.13;;;24.80;99.20;;;;;;5034325;28;20049;-55
2023/09/04 11:50:49;;;;;;;8.52;4.20;;;24.90;99.00;;;;;;5030322;28;20133;-53
2023/09/04 11:53:15;;;;;;;16.05;4.47;;;24.90;99.10;;;;;;5032583;28;20044;-51
2023/09/04 11:55:42;;;;;;;26.48;5.45;;;25.00;99.00;;;;;;5035078;28;20053;-55
2023/09/04 11:58:09;;;;;;;8.15;4.40;;;25.10;99.10;;;;;;5033908;28;20087;-51
2023/09/04 12:00:36;;;;;;;6.40;4.22;;;25.10;99.30;;;;;;5033492;28;20045;-53
2023/09/04 12:03:04;;;;;;;6.03;3.90;;;25.20;99.00;;;;;;5034405;28;20465;-53
2023/09/04 12:05:31;;;;;;;5.88;3.78;;;25.30;98.70;;;;;;5034255;28;20455;-51
2023/09/04 12:07:58;;;;;;;7.22;3.92;;;25.30;98.90;;;;;;5033579;28;20049;-55
2023/09/04 12:10:25;;;;;;;7.60;4.40;;;25.30;99.20;;;;;;5033903;28;20498;-56
2023/09/04 12:12:52;;;;;;;5.15;4.10;;;25.40;99.00;;;;;;5025087;28;20045;-58
2023/09/04 12:15:19;;;;;;;5.95;3.97;;;25.40;99.00;;;;;;5032626;28;20068;-50
2023/09/04 12:17:46;;;;;;;10.13;4.43;;;25.40;99.10;;;;;;5034001;28;20053;-54
2023/09/04 12:20:13;;;;;;;6.40;3.97;;;25.40;99.10;;;;;;5033985;28;20044;-51
2023/09/04 12:22:40;;;;;;;4.78;4.18;;;25.50;99.00;;;;;;5033687;28;20053;-49
2023/09/04 12:25:07;;;;;;;6.85;4.10;;;25.50;98.80;;;;;;5033966;28;20034;-51
2023/09/04 12:27:34;;;;;;;7.65;4.32;;;25.60;99.10;;;;;;5033609;28;20073;-56
2023/09/04 12:30:01;;;;;;;5.47;4.30;;;25.70;98.80;;;;;;5033878;28;20347;-55